sensor_id;sensor_type;location;lat;lon;timestamp;pressure;altitude;pressure_sealevel;temperature;humidity
72096;BME280;59968;51.084;16.748;2023-05-01T00:01:49;100793.18;;;6.24;64.88
72096;BME280;59968;51.084;16.748;2023-05-01T00:04:56;100791.95;;;6.22;64.55
72096;BME280;59968;51.084;16.748;2023-05-01T00:11:05;100789.09;;;6.16;64.89
72096;BME280;59968;51.084;16.748;2023-05-01T00:13:50;100788.94;;;6.14;64.87
72096;BME280;59968;51.084;16.748;2023-05-01T00:16:24;100785.50;;;6.13;64.87
72096;BME280;59968;51.084;16.748;2023-05-01T00:19:12;100786.17;;;6.13;64.97
72096;BME280;59968;51.084;16.748;2023-05-01T00:22:13;100785.33;;;6.11;64.88
72096;BME280;59968;51.084;16.748;2023-05-01T00:25:06;100782.91;;;6.08;64.83
72096;BME280;59968;51.084;16.748;2023-05-01T00:28:00;100791.27;;;6.05;64.70
72096;BME280;59968;51.084;16.748;2023-05-01T00:30:37;100789.66;;;6.04;64.85
72096;BME280;59968;51.084;16.748;2023-05-01T00:33:17;100788.64;;;6.00;65.02
72096;BME280;59968;51.084;16.748;2023-05-01T00:35:51;100788.41;;;5.96;65.17
72096;BME280;59968;51.084;16.748;2023-05-01T00:38:33;100769.48;;;5.82;64.96
72096;BME280;59968;51.084;16.748;2023-05-01T00:41:06;100783.69;;;5.85;65.04
72096;BME280;59968;51.084;16.748;2023-05-01T00:43:46;100778.81;;;5.81;65.28
72096;BME280;59968;51.084;16.748;2023-05-01T00:46:23;100774.63;;;5.71;65.65
72096;BME280;59968;51.084;16.748;2023-05-01T00:49:17;100773.01;;;5.61;66.20
72096;BME280;59968;51.084;16.748;2023-05-01T00:51:57;100770.61;;;5.55;66.36
72096;BME280;59968;51.084;16.748;2023-05-01T00:59:55;100762.88;;;5.45;67.25
72096;BME280;59968;51.084;16.748;2023-05-01T01:02:30;100763.02;;;5.43;67.07
72096;BME280;59968;51.084;16.748;2023-05-01T01:05:03;100764.81;;;5.41;67.46
72096;BME280;59968;51.084;16.748;2023-05-01T01:07:52;100759.17;;;5.39;67.54
72096;BME280;59968;51.084;16.748;2023-05-01T01:10:55;100752.66;;;5.37;67.74
72096;BME280;59968;51.084;16.748;2023-05-01T01:13:55;100758.89;;;5.36;67.67
72096;BME280;59968;51.084;16.748;2023-05-01T01:16:50;100761.79;;;5.37;67.58
72096;BME280;59968;51.084;16.748;2023-05-01T01:22:40;100754.96;;;5.33;67.19
72096;BME280;59968;51.084;16.748;2023-05-01T01:25:46;100757.94;;;5.32;67.28
72096;BME280;59968;51.084;16.748;2023-05-01T01:28:38;100751.52;;;5.27;67.15
72096;BME280;59968;51.084;16.748;2023-05-01T01:31:38;100745.64;;;5.22;67.29
72096;BME280;59968;51.084;16.748;2023-05-01T01:34:26;100749.13;;;5.20;67.57
72096;BME280;59968;51.084;16.748;2023-05-01T01:37:23;100750.34;;;5.16;67.53
72096;BME280;59968;51.084;16.748;2023-05-01T01:40:10;100743.64;;;5.13;67.64
72096;BME280;59968;51.084;16.748;2023-05-01T01:43:10;100740.48;;;5.10;67.73
72096;BME280;59968;51.084;16.748;2023-05-01T01:46:04;100744.98;;;5.09;67.51
72096;BME280;59968;51.084;16.748;2023-05-01T01:49:20;100741.52;;;5.06;67.23
72096;BME280;59968;51.084;16.748;2023-05-01T01:52:05;100745.18;;;5.02;67.28
72096;BME280;59968;51.084;16.748;2023-05-01T01:54:54;100747.70;;;5.00;67.38
72096;BME280;59968;51.084;16.748;2023-05-01T01:57:37;100743.70;;;4.97;67.27
72096;BME280;59968;51.084;16.748;2023-05-01T02:00:49;100739.73;;;4.92;67.17
72096;BME280;59968;51.084;16.748;2023-05-01T02:03:22;100745.29;;;4.90;67.52
72096;BME280;59968;51.084;16.748;2023-05-01T02:06:07;100738.19;;;4.85;67.56
72096;BME280;59968;51.084;16.748;2023-05-01T02:08:39;100736.11;;;4.83;67.42
72096;BME280;59968;51.084;16.748;2023-05-01T02:11:18;100733.30;;;4.80;67.52
72096;BME280;59968;51.084;16.748;2023-05-01T02:13:49;100730.79;;;4.78;67.64
72096;BME280;59968;51.084;16.748;2023-05-01T02:16:31;100725.89;;;4.76;67.45
72096;BME280;59968;51.084;16.748;2023-05-01T02:19:28;100721.88;;;4.73;67.63
72096;BME280;59968;51.084;16.748;2023-05-01T02:22:12;100714.25;;;4.64;67.54
72096;BME280;59968;51.084;16.748;2023-05-01T02:25:09;100723.69;;;4.66;67.65
72096;BME280;59968;51.084;16.748;2023-05-01T02:28:02;100723.73;;;4.62;67.55
72096;BME280;59968;51.084;16.748;2023-05-01T02:30:34;100725.11;;;4.58;67.61
72096;BME280;59968;51.084;16.748;2023-05-01T02:33:06;100724.95;;;4.56;67.64
72096;BME280;59968;51.084;16.748;2023-05-01T02:35:41;100721.05;;;4.54;67.75
72096;BME280;59968;51.084;16.748;2023-05-01T02:38:43;100714.41;;;4.50;67.75
72096;BME280;59968;51.084;16.748;2023-05-01T02:41:20;100717.30;;;4.46;67.61
72096;BME280;59968;51.084;16.748;2023-05-01T02:43:53;100715.27;;;4.42;67.56
72096;BME280;59968;51.084;16.748;2023-05-01T02:46:49;100715.49;;;4.38;67.94
72096;BME280;59968;51.084;16.748;2023-05-01T02:49:18;100714.52;;;4.35;67.86
72096;BME280;59968;51.084;16.748;2023-05-01T02:52:00;100710.78;;;4.31;67.70
72096;BME280;59968;51.084;16.748;2023-05-01T02:54:37;100707.80;;;4.28;67.64
72096;BME280;59968;51.084;16.748;2023-05-01T02:57:19;100706.44;;;4.27;67.75
72096;BME280;59968;51.084;16.748;2023-05-01T02:59:56;100704.85;;;4.23;67.76
72096;BME280;59968;51.084;16.748;2023-05-01T03:02:47;100700.93;;;4.21;67.96
72096;BME280;59968;51.084;16.748;2023-05-01T03:05:39;100703.80;;;4.22;68.25
72096;BME280;59968;51.084;16.748;2023-05-01T03:08:19;100701.17;;;4.22;68.38
72096;BME280;59968;51.084;16.748;2023-05-01T03:11:05;100703.04;;;4.23;68.44
72096;BME280;59968;51.084;16.748;2023-05-01T03:14:07;100697.30;;;4.21;68.67
72096;BME280;59968;51.084;16.748;2023-05-01T03:16:39;100694.59;;;4.21;68.75
72096;BME280;59968;51.084;16.748;2023-05-01T03:19:15;100696.09;;;4.22;68.71
72096;BME280;59968;51.084;16.748;2023-05-01T03:21:54;100695.86;;;4.21;68.53
72096;BME280;59968;51.084;16.748;2023-05-01T03:24:37;100693.84;;;4.19;68.47
72096;BME280;59968;51.084;16.748;2023-05-01T03:27:20;100692.11;;;4.15;68.44
72096;BME280;59968;51.084;16.748;2023-05-01T03:29:57;100693.50;;;4.11;68.26
72096;BME280;59968;51.084;16.748;2023-05-01T03:32:32;100695.34;;;4.07;68.41
72096;BME280;59968;51.084;16.748;2023-05-01T03:35:30;100697.23;;;4.06;68.22
72096;BME280;59968;51.084;16.748;2023-05-01T03:38:06;100697.05;;;4.04;68.07
72096;BME280;59968;51.084;16.748;2023-05-01T03:41:07;100697.55;;;4.02;68.32
72096;BME280;59968;51.084;16.748;2023-05-01T03:44:13;100693.42;;;4.02;68.29
72096;BME280;59968;51.084;16.748;2023-05-01T03:46:45;100691.89;;;4.02;68.47
72096;BME280;59968;51.084;16.748;2023-05-01T03:52:07;100689.64;;;4.08;68.68
72096;BME280;59968;51.084;16.748;2023-05-01T03:54:38;100686.45;;;4.13;68.57
72096;BME280;59968;51.084;16.748;2023-05-01T03:57:33;100689.40;;;4.20;69.05
72096;BME280;59968;51.084;16.748;2023-05-01T04:00:18;100690.99;;;4.29;69.39
72096;BME280;59968;51.084;16.748;2023-05-01T04:02:47;100685.59;;;4.39;69.54
72096;BME280;59968;51.084;16.748;2023-05-01T04:05:35;100688.02;;;4.52;70.08
72096;BME280;59968;51.084;16.748;2023-05-01T04:08:13;100690.21;;;4.65;70.28
72096;BME280;59968;51.084;16.748;2023-05-01T04:11:04;100690.10;;;4.75;69.45
72096;BME280;59968;51.084;16.748;2023-05-01T04:13:42;100688.75;;;4.84;69.31
72096;BME280;59968;51.084;16.748;2023-05-01T04:16:19;100686.64;;;4.94;69.08
72096;BME280;59968;51.084;16.748;2023-05-01T04:18:58;100684.48;;;5.02;69.19
72096;BME280;59968;51.084;16.748;2023-05-01T04:21:27;100684.33;;;5.14;69.51
72096;BME280;59968;51.084;16.748;2023-05-01T04:23:59;100680.64;;;5.28;69.83
72096;BME280;59968;51.084;16.748;2023-05-01T04:26:31;100676.52;;;5.44;70.03
72096;BME280;59968;51.084;16.748;2023-05-01T04:29:19;100677.13;;;5.61;69.85
72096;BME280;59968;51.084;16.748;2023-05-01T04:31:53;100672.78;;;5.79;69.84
72096;BME280;59968;51.084;16.748;2023-05-01T04:34:37;100672.79;;;5.98;70.03
72096;BME280;59968;51.084;16.748;2023-05-01T04:37:05;100671.34;;;6.16;69.97
72096;BME280;59968;51.084;16.748;2023-05-01T04:39:47;100668.71;;;6.34;69.54
72096;BME280;59968;51.084;16.748;2023-05-01T04:42:39;100670.32;;;6.53;69.64
72096;BME280;59968;51.084;16.748;2023-05-01T04:45:22;100677.29;;;6.74;69.29
72096;BME280;59968;51.084;16.748;2023-05-01T04:48:11;100682.05;;;6.90;68.87
72096;BME280;59968;51.084;16.748;2023-05-01T04:50:44;100681.26;;;7.02;68.78
72096;BME280;59968;51.084;16.748;2023-05-01T04:53:19;100686.65;;;7.18;68.61
72096;BME280;59968;51.084;16.748;2023-05-01T04:55:55;100683.52;;;7.34;68.79
72096;BME280;59968;51.084;16.748;2023-05-01T04:58:34;100681.75;;;7.55;68.70
72096;BME280;59968;51.084;16.748;2023-05-01T05:01:10;100683.34;;;7.76;68.56
72096;BME280;59968;51.084;16.748;2023-05-01T05:03:39;100677.81;;;7.96;68.25
72096;BME280;59968;51.084;16.748;2023-05-01T05:06:11;100678.79;;;8.17;67.78
72096;BME280;59968;51.084;16.748;2023-05-01T05:09:03;100681.70;;;8.33;67.14
72096;BME280;59968;51.084;16.748;2023-05-01T05:11:35;100676.91;;;8.47;67.26
72096;BME280;59968;51.084;16.748;2023-05-01T05:14:09;100677.29;;;8.61;66.88
72096;BME280;59968;51.084;16.748;2023-05-01T05:17:13;100671.67;;;8.80;66.95
72096;BME280;59968;51.084;16.748;2023-05-01T05:19:47;100677.17;;;9.00;66.36
72096;BME280;59968;51.084;16.748;2023-05-01T05:22:30;100671.20;;;9.20;65.74
72096;BME280;59968;51.084;16.748;2023-05-01T05:25:23;100668.74;;;9.38;65.04
72096;BME280;59968;51.084;16.748;2023-05-01T05:27:52;100667.31;;;9.54;64.81
72096;BME280;59968;51.084;16.748;2023-05-01T05:30:23;100666.02;;;9.68;64.30
72096;BME280;59968;51.084;16.748;2023-05-01T05:33:16;100660.88;;;9.82;64.27
72096;BME280;59968;51.084;16.748;2023-05-01T05:35:57;100657.30;;;9.95;64.20
72096;BME280;59968;51.084;16.748;2023-05-01T05:38:42;100655.38;;;10.14;63.82
72096;BME280;59968;51.084;16.748;2023-05-01T05:41:18;100652.67;;;10.36;62.84
72096;BME280;59968;51.084;16.748;2023-05-01T05:43:58;100656.89;;;10.57;62.00
72096;BME280;59968;51.084;16.748;2023-05-01T05:46:28;100657.32;;;10.75;61.61
72096;BME280;59968;51.084;16.748;2023-05-01T05:49:00;100653.67;;;10.94;61.68
72096;BME280;59968;51.084;16.748;2023-05-01T05:51:34;100653.18;;;11.11;60.77
72096;BME280;59968;51.084;16.748;2023-05-01T05:54:13;100651.45;;;11.30;60.38
72096;BME280;59968;51.084;16.748;2023-05-01T05:56:53;100651.74;;;11.51;59.85
72096;BME280;59968;51.084;16.748;2023-05-01T05:59:27;100643.38;;;11.66;59.34
72096;BME280;59968;51.084;16.748;2023-05-01T06:02:18;100652.65;;;11.90;59.12
72096;BME280;59968;51.084;16.748;2023-05-01T06:04:48;100648.77;;;12.10;58.79
72096;BME280;59968;51.084;16.748;2023-05-01T06:07:23;100652.68;;;12.28;58.55
72096;BME280;59968;51.084;16.748;2023-05-01T06:09:54;100647.98;;;12.45;58.24
72096;BME280;59968;51.084;16.748;2023-05-01T06:12:29;100646.99;;;12.61;57.82
72096;BME280;59968;51.084;16.748;2023-05-01T06:14:59;100645.98;;;12.77;57.54
72096;BME280;59968;51.084;16.748;2023-05-01T06:17:31;100644.01;;;12.93;57.08
72096;BME280;59968;51.084;16.748;2023-05-01T06:20:06;100644.27;;;13.09;56.48
72096;BME280;59968;51.084;16.748;2023-05-01T06:22:38;100643.42;;;13.21;55.95
72096;BME280;59968;51.084;16.748;2023-05-01T06:25:15;100644.65;;;13.34;55.56
72096;BME280;59968;51.084;16.748;2023-05-01T06:27:46;100643.51;;;13.48;55.37
72096;BME280;59968;51.084;16.748;2023-05-01T06:30:18;100640.10;;;13.62;55.22
72096;BME280;59968;51.084;16.748;2023-05-01T06:32:52;100633.80;;;13.74;54.90
72096;BME280;59968;51.084;16.748;2023-05-01T06:35:31;100632.42;;;13.90;54.68
72096;BME280;59968;51.084;16.748;2023-05-01T06:38:03;100634.23;;;14.03;54.42
72096;BME280;59968;51.084;16.748;2023-05-01T06:40:34;100627.03;;;14.12;53.71
72096;BME280;59968;51.084;16.748;2023-05-01T06:43:06;100634.62;;;14.29;53.04
72096;BME280;59968;51.084;16.748;2023-05-01T06:45:35;100631.63;;;14.44;52.29
72096;BME280;59968;51.084;16.748;2023-05-01T06:48:07;100631.98;;;14.46;52.65
72096;BME280;59968;51.084;16.748;2023-05-01T06:50:59;100633.88;;;14.53;51.82
72096;BME280;59968;51.084;16.748;2023-05-01T06:53:30;100632.31;;;14.55;50.52
72096;BME280;59968;51.084;16.748;2023-05-01T06:56:02;100629.64;;;14.58;50.28
72096;BME280;59968;51.084;16.748;2023-05-01T06:58:33;100628.04;;;14.60;49.77
72096;BME280;59968;51.084;16.748;2023-05-01T07:01:11;100623.36;;;14.65;49.68
72096;BME280;59968;51.084;16.748;2023-05-01T07:03:42;100618.84;;;14.57;50.28
72096;BME280;59968;51.084;16.748;2023-05-01T07:06:15;100621.55;;;14.63;49.29
72096;BME280;59968;51.084;16.748;2023-05-01T07:08:49;100611.31;;;14.72;48.82
72096;BME280;59968;51.084;16.748;2023-05-01T07:11:19;100608.30;;;14.88;49.53
72096;BME280;59968;51.084;16.748;2023-05-01T07:13:48;100607.32;;;15.07;48.57
72096;BME280;59968;51.084;16.748;2023-05-01T07:16:17;100611.11;;;15.27;46.82
72096;BME280;59968;51.084;16.748;2023-05-01T07:18:49;100608.48;;;15.42;46.83
72096;BME280;59968;51.084;16.748;2023-05-01T07:21:18;100602.95;;;15.54;45.94
72096;BME280;59968;51.084;16.748;2023-05-01T07:23:47;100603.21;;;15.66;45.27
72096;BME280;59968;51.084;16.748;2023-05-01T07:26:15;100601.44;;;15.80;45.16
72096;BME280;59968;51.084;16.748;2023-05-01T07:28:44;100597.40;;;15.88;45.51
72096;BME280;59968;51.084;16.748;2023-05-01T07:31:16;100591.54;;;15.95;46.13
72096;BME280;59968;51.084;16.748;2023-05-01T07:33:45;100594.01;;;15.90;45.66
72096;BME280;59968;51.084;16.748;2023-05-01T07:36:14;100604.89;;;15.93;45.41
72096;BME280;59968;51.084;16.748;2023-05-01T07:38:46;100597.06;;;16.03;44.93
72096;BME280;59968;51.084;16.748;2023-05-01T07:41:14;100596.22;;;16.17;44.13
72096;BME280;59968;51.084;16.748;2023-05-01T07:43:43;100592.89;;;16.32;44.44
72096;BME280;59968;51.084;16.748;2023-05-01T07:46:12;100594.58;;;16.42;43.13
72096;BME280;59968;51.084;16.748;2023-05-01T07:48:41;100591.30;;;16.50;42.79
72096;BME280;59968;51.084;16.748;2023-05-01T07:51:09;100580.33;;;16.46;42.88
72096;BME280;59968;51.084;16.748;2023-05-01T07:53:38;100586.60;;;16.54;42.56
72096;BME280;59968;51.084;16.748;2023-05-01T07:56:09;100583.84;;;16.56;41.72
72096;BME280;59968;51.084;16.748;2023-05-01T07:58:38;100581.88;;;16.59;42.55
72096;BME280;59968;51.084;16.748;2023-05-01T08:01:09;100579.92;;;16.60;41.72
72096;BME280;59968;51.084;16.748;2023-05-01T08:03:37;100581.48;;;16.67;41.67
72096;BME280;59968;51.084;16.748;2023-05-01T08:06:06;100573.82;;;16.79;40.90
72096;BME280;59968;51.084;16.748;2023-05-01T08:08:35;100573.48;;;16.86;40.71
72096;BME280;59968;51.084;16.748;2023-05-01T08:11:04;100571.02;;;16.90;39.87
72096;BME280;59968;51.084;16.748;2023-05-01T08:13:32;100568.95;;;16.92;38.60
72096;BME280;59968;51.084;16.748;2023-05-01T08:16:02;100567.91;;;16.86;38.36
72096;BME280;59968;51.084;16.748;2023-05-01T08:18:31;100567.14;;;16.87;39.17
72096;BME280;59968;51.084;16.748;2023-05-01T08:20:59;100567.11;;;16.89;40.34
72096;BME280;59968;51.084;16.748;2023-05-01T08:23:27;100570.04;;;16.91;40.51
72096;BME280;59968;51.084;16.748;2023-05-01T08:25:56;100556.01;;;16.81;39.40
72096;BME280;59968;51.084;16.748;2023-05-01T08:28:25;100564.90;;;16.91;39.38
72096;BME280;59968;51.084;16.748;2023-05-01T08:30:54;100564.00;;;16.98;39.20
72096;BME280;59968;51.084;16.748;2023-05-01T08:33:22;100572.16;;;17.13;38.48
72096;BME280;59968;51.084;16.748;2023-05-01T08:35:51;100563.14;;;17.25;38.43
72096;BME280;59968;51.084;16.748;2023-05-01T08:38:20;100554.30;;;17.37;37.57
72096;BME280;59968;51.084;16.748;2023-05-01T08:40:52;100551.27;;;17.42;37.55
72096;BME280;59968;51.084;16.748;2023-05-01T08:43:22;100549.21;;;17.45;37.05
72096;BME280;59968;51.084;16.748;2023-05-01T08:45:52;100548.66;;;17.53;37.21
72096;BME280;59968;51.084;16.748;2023-05-01T08:48:22;100539.79;;;17.59;36.72
72096;BME280;59968;51.084;16.748;2023-05-01T08:50:54;100541.48;;;17.66;37.16
72096;BME280;59968;51.084;16.748;2023-05-01T08:53:25;100537.30;;;17.73;37.86
72096;BME280;59968;51.084;16.748;2023-05-01T08:55:57;100540.54;;;17.77;37.37
72096;BME280;59968;51.084;16.748;2023-05-01T08:58:27;100541.00;;;17.84;38.08
72096;BME280;59968;51.084;16.748;2023-05-01T09:00:57;100536.79;;;17.93;37.85
72096;BME280;59968;51.084;16.748;2023-05-01T09:03:26;100533.59;;;17.98;37.01
72096;BME280;59968;51.084;16.748;2023-05-01T09:05:57;100527.52;;;18.03;36.78
72096;BME280;59968;51.084;16.748;2023-05-01T09:08:27;100522.66;;;18.08;36.17
72096;BME280;59968;51.084;16.748;2023-05-01T09:10:55;100519.92;;;18.12;36.76
72096;BME280;59968;51.084;16.748;2023-05-01T09:13:25;100514.74;;;18.14;37.14
72096;BME280;59968;51.084;16.748;2023-05-01T09:15:53;100514.58;;;18.18;36.94
72096;BME280;59968;51.084;16.748;2023-05-01T09:18:22;100512.98;;;18.26;36.76
72096;BME280;59968;51.084;16.748;2023-05-01T09:20:51;100507.56;;;18.39;35.56
72096;BME280;59968;51.084;16.748;2023-05-01T09:23:20;100512.68;;;18.48;35.87
72096;BME280;59968;51.084;16.748;2023-05-01T09:25:49;100508.39;;;18.54;35.35
72096;BME280;59968;51.084;16.748;2023-05-01T09:28:38;100505.34;;;18.57;34.84
72096;BME280;59968;51.084;16.748;2023-05-01T09:31:20;100509.77;;;18.69;35.03
72096;BME280;59968;51.084;16.748;2023-05-01T09:34:00;100509.27;;;18.77;34.57
72096;BME280;59968;51.084;16.748;2023-05-01T09:36:30;100504.77;;;18.82;34.67
72096;BME280;59968;51.084;16.748;2023-05-01T09:39:00;100499.98;;;18.91;35.29
72096;BME280;59968;51.084;16.748;2023-05-01T09:41:29;100497.85;;;19.02;34.76
72096;BME280;59968;51.084;16.748;2023-05-01T09:44:01;100492.66;;;19.06;34.90
72096;BME280;59968;51.084;16.748;2023-05-01T09:46:40;100488.48;;;19.05;35.86
72096;BME280;59968;51.084;16.748;2023-05-01T09:49:09;100487.65;;;19.06;35.80
72096;BME280;59968;51.084;16.748;2023-05-01T09:51:38;100483.46;;;19.07;35.56
72096;BME280;59968;51.084;16.748;2023-05-01T09:54:17;100483.77;;;19.10;34.64
72096;BME280;59968;51.084;16.748;2023-05-01T09:56:47;100483.81;;;19.16;34.73
72096;BME280;59968;51.084;16.748;2023-05-01T09:59:17;100483.38;;;19.20;34.38
72096;BME280;59968;51.084;16.748;2023-05-01T10:01:47;100479.59;;;19.29;34.27
72096;BME280;59968;51.084;16.748;2023-05-01T10:04:28;100477.77;;;19.34;33.23
72096;BME280;59968;51.084;16.748;2023-05-01T10:06:58;100474.74;;;19.35;32.84
72096;BME280;59968;51.084;16.748;2023-05-01T10:09:38;100470.77;;;19.37;33.39
72096;BME280;59968;51.084;16.748;2023-05-01T10:12:06;100460.03;;;19.42;33.73
72096;BME280;59968;51.084;16.748;2023-05-01T10:14:54;100456.67;;;19.46;33.47
72096;BME280;59968;51.084;16.748;2023-05-01T10:17:23;100447.86;;;19.49;33.56
72096;BME280;59968;51.084;16.748;2023-05-01T10:19:52;100452.86;;;19.53;34.12
72096;BME280;59968;51.084;16.748;2023-05-01T10:22:21;100452.29;;;19.57;34.00
72096;BME280;59968;51.084;16.748;2023-05-01T10:24:50;100447.10;;;19.59;33.50
72096;BME280;59968;51.084;16.748;2023-05-01T10:27:23;100442.27;;;19.61;33.89
72096;BME280;59968;51.084;16.748;2023-05-01T10:29:52;100443.73;;;19.64;33.74
72096;BME280;59968;51.084;16.748;2023-05-01T10:32:21;100439.95;;;19.68;33.64
72096;BME280;59968;51.084;16.748;2023-05-01T10:34:54;100439.27;;;19.72;32.98
72096;BME280;59968;51.084;16.748;2023-05-01T10:37:30;100435.08;;;19.75;33.74
72096;BME280;59968;51.084;16.748;2023-05-01T10:43:43;100430.82;;;19.89;32.64
72096;BME280;59968;51.084;16.748;2023-05-01T10:51:19;100425.69;;;20.01;31.59
72096;BME280;59968;51.084;16.748;2023-05-01T10:56:40;100416.45;;;20.20;33.89
72096;BME280;59968;51.084;16.748;2023-05-01T10:59:10;100410.04;;;20.29;31.89
72096;BME280;59968;51.084;16.748;2023-05-01T11:01:44;100411.31;;;20.30;32.34
72096;BME280;59968;51.084;16.748;2023-05-01T11:09:49;100408.52;;;20.34;32.25
72096;BME280;59968;51.084;16.748;2023-05-01T11:15:28;100395.58;;;20.32;32.63
72096;BME280;59968;51.084;16.748;2023-05-01T11:17:59;100389.09;;;20.37;31.78
72096;BME280;59968;51.084;16.748;2023-05-01T11:22:57;100385.90;;;20.33;31.93
72096;BME280;59968;51.084;16.748;2023-05-01T11:25:29;100384.01;;;20.33;32.31
72096;BME280;59968;51.084;16.748;2023-05-01T11:28:01;100379.08;;;20.38;32.10
72096;BME280;59968;51.084;16.748;2023-05-01T11:30:39;100371.05;;;20.42;31.64
72096;BME280;59968;51.084;16.748;2023-05-01T11:33:08;100366.88;;;20.45;32.49
72096;BME280;59968;51.084;16.748;2023-05-01T11:35:38;100358.81;;;20.52;32.21
72096;BME280;59968;51.084;16.748;2023-05-01T11:38:16;100355.17;;;20.58;31.96
72096;BME280;59968;51.084;16.748;2023-05-01T11:40:53;100352.74;;;20.65;32.91
72096;BME280;59968;51.084;16.748;2023-05-01T11:43:22;100346.30;;;20.66;31.82
72096;BME280;59968;51.084;16.748;2023-05-01T11:45:52;100342.41;;;20.65;31.52
72096;BME280;59968;51.084;16.748;2023-05-01T11:48:22;100335.05;;;20.69;31.93
72096;BME280;59968;51.084;16.748;2023-05-01T11:50:51;100330.29;;;20.74;31.54
72096;BME280;59968;51.084;16.748;2023-05-01T11:53:19;100330.38;;;20.71;31.64
72096;BME280;59968;51.084;16.748;2023-05-01T11:55:48;100332.38;;;20.72;31.08
72096;BME280;59968;51.084;16.748;2023-05-01T11:58:16;100331.13;;;20.74;31.32
72096;BME280;59968;51.084;16.748;2023-05-01T12:00:49;100330.79;;;20.78;31.33
72096;BME280;59968;51.084;16.748;2023-05-01T12:03:17;100327.91;;;20.80;31.15
72096;BME280;59968;51.084;16.748;2023-05-01T12:05:47;100319.48;;;20.84;31.38
72096;BME280;59968;51.084;16.748;2023-05-01T12:08:20;100315.53;;;20.93;31.05
72096;BME280;59968;51.084;16.748;2023-05-01T12:10:53;100314.75;;;20.99;30.74
72096;BME280;59968;51.084;16.748;2023-05-01T12:13:25;100311.77;;;21.01;31.27
72096;BME280;59968;51.084;16.748;2023-05-01T12:15:56;100309.30;;;21.04;31.07
72096;BME280;59968;51.084;16.748;2023-05-01T12:18:25;100297.04;;;21.04;30.86
72096;BME280;59968;51.084;16.748;2023-05-01T12:20:54;100298.56;;;21.11;30.00
72096;BME280;59968;51.084;16.748;2023-05-01T12:25:59;100293.83;;;21.16;30.11
72096;BME280;59968;51.084;16.748;2023-05-01T12:28:30;100291.27;;;21.18;29.85
72096;BME280;59968;51.084;16.748;2023-05-01T12:31:01;100290.94;;;21.19;29.95
72096;BME280;59968;51.084;16.748;2023-05-01T12:33:32;100292.19;;;21.18;30.34
72096;BME280;59968;51.084;16.748;2023-05-01T12:36:08;100277.71;;;21.23;30.99
72096;BME280;59968;51.084;16.748;2023-05-01T12:38:40;100270.55;;;21.25;30.38
72096;BME280;59968;51.084;16.748;2023-05-01T12:41:08;100266.63;;;21.23;31.32
72096;BME280;59968;51.084;16.748;2023-05-01T12:43:39;100262.52;;;21.25;30.37
72096;BME280;59968;51.084;16.748;2023-05-01T12:46:13;100258.48;;;21.27;30.25
72096;BME280;59968;51.084;16.748;2023-05-01T12:48:42;100256.26;;;21.31;30.05
72096;BME280;59968;51.084;16.748;2023-05-01T12:51:17;100255.99;;;21.35;30.44
72096;BME280;59968;51.084;16.748;2023-05-01T12:53:47;100246.84;;;21.40;29.84
72096;BME280;59968;51.084;16.748;2023-05-01T12:56:23;100244.05;;;21.44;30.77
72096;BME280;59968;51.084;16.748;2023-05-01T12:58:52;100236.35;;;21.46;30.03
72096;BME280;59968;51.084;16.748;2023-05-01T13:01:26;100236.83;;;21.47;30.33
72096;BME280;59968;51.084;16.748;2023-05-01T13:03:55;100230.61;;;21.54;30.24
72096;BME280;59968;51.084;16.748;2023-05-01T13:06:31;100227.55;;;21.54;30.66
72096;BME280;59968;51.084;16.748;2023-05-01T13:09:07;100224.12;;;21.59;30.39
72096;BME280;59968;51.084;16.748;2023-05-01T13:11:38;100214.10;;;21.67;30.10
72096;BME280;59968;51.084;16.748;2023-05-01T13:14:08;100210.14;;;21.71;29.64
72096;BME280;59968;51.084;16.748;2023-05-01T13:16:44;100209.29;;;21.72;28.93
72096;BME280;59968;51.084;16.748;2023-05-01T13:19:23;100206.23;;;21.75;28.96
72096;BME280;59968;51.084;16.748;2023-05-01T13:21:57;100200.63;;;21.71;29.18
72096;BME280;59968;51.084;16.748;2023-05-01T13:24:42;100198.99;;;21.69;28.99
72096;BME280;59968;51.084;16.748;2023-05-01T13:27:11;100198.36;;;21.71;30.05
72096;BME280;59968;51.084;16.748;2023-05-01T13:29:40;100185.44;;;21.77;29.89
72096;BME280;59968;51.084;16.748;2023-05-01T13:32:10;100182.27;;;21.79;29.11
72096;BME280;59968;51.084;16.748;2023-05-01T13:34:41;100175.45;;;21.78;28.63
72096;BME280;59968;51.084;16.748;2023-05-01T13:37:10;100169.06;;;21.78;29.09
72096;BME280;59968;51.084;16.748;2023-05-01T13:39:45;100165.25;;;21.81;29.29
72096;BME280;59968;51.084;16.748;2023-05-01T13:42:21;100164.48;;;21.84;29.15
72096;BME280;59968;51.084;16.748;2023-05-01T13:44:54;100165.42;;;21.89;29.16
72096;BME280;59968;51.084;16.748;2023-05-01T13:47:24;100159.84;;;21.93;29.69
72096;BME280;59968;51.084;16.748;2023-05-01T13:49:54;100147.55;;;21.87;29.81
72096;BME280;59968;51.084;16.748;2023-05-01T13:52:23;100153.16;;;22.01;29.43
72096;BME280;59968;51.084;16.748;2023-05-01T13:54:54;100150.94;;;22.07;29.18
72096;BME280;59968;51.084;16.748;2023-05-01T13:57:23;100154.25;;;22.10;29.53
72096;BME280;59968;51.084;16.748;2023-05-01T13:59:52;100150.81;;;22.14;29.40
72096;BME280;59968;51.084;16.748;2023-05-01T14:02:27;100147.48;;;22.17;29.63
72096;BME280;59968;51.084;16.748;2023-05-01T14:04:57;100145.20;;;22.22;29.66
72096;BME280;59968;51.084;16.748;2023-05-01T14:07:28;100140.44;;;22.24;29.59
72096;BME280;59968;51.084;16.748;2023-05-01T14:09:57;100138.84;;;22.26;29.64